sensor_id;sensor_type;location;lat;lon;timestamp;P1;durP1;ratioP1;P2;durP2;ratioP2
64854;SDS011;51321;50.428;8.378;2023-05-10T00:00:12;1.58;;;0.38;;
64854;SDS011;51321;50.428;8.378;2023-05-10T00:02:54;0.20;;;0.20;;
64854;SDS011;51321;50.428;8.378;2023-05-10T00:05:35;0.45;;;0.30;;
64854;SDS011;51321;50.428;8.378;2023-05-10T00:08:17;0.95;;;0.40;;
64854;SDS011;51321;50.428;8.378;2023-05-10T00:11:00;1.98;;;0.20;;
64854;SDS011;51321;50.428;8.378;2023-05-10T00:13:41;0.73;;;0.35;;
64854;SDS011;51321;50.428;8.378;2023-05-10T00:16:21;1.60;;;0.32;;
64854;SDS011;51321;50.428;8.378;2023-05-10T00:19:02;1.52;;;0.30;;
64854;SDS011;51321;50.428;8.378;2023-05-10T00:21:43;0.68;;;0.28;;
64854;SDS011;51321;50.428;8.378;2023-05-10T00:24:25;1.17;;;0.28;;
64854;SDS011;51321;50.428;8.378;2023-05-10T00:27:08;5.60;;;0.50;;
64854;SDS011;51321;50.428;8.378;2023-05-10T00:29:49;0.10;;;0.10;;
64854;SDS011;51321;50.428;8.378;2023-05-10T00:32:30;0.60;;;0.20;;
64854;SDS011;51321;50.428;8.378;2023-05-10T00:35:11;1.48;;;0.20;;
64854;SDS011;51321;50.428;8.378;2023-05-10T00:37:52;1.58;;;0.85;;
64854;SDS011;51321;50.428;8.378;2023-05-10T00:40:33;0.47;;;0.25;;
64854;SDS011;51321;50.428;8.378;2023-05-10T00:43:20;5.18;;;0.50;;
64854;SDS011;51321;50.428;8.378;2023-05-10T00:46:03;3.38;;;0.30;;
64854;SDS011;51321;50.428;8.378;2023-05-10T00:48:45;1.20;;;0.20;;
64854;SDS011;51321;50.428;8.378;2023-05-10T00:51:26;0.70;;;0.28;;
64854;SDS011;51321;50.428;8.378;2023-05-10T00:54:07;0.35;;;0.20;;
64854;SDS011;51321;50.428;8.378;2023-05-10T00:56:49;0.50;;;0.28;;
64854;SDS011;51321;50.428;8.378;2023-05-10T00:59:34;1.02;;;0.30;;
64854;SDS011;51321;50.428;8.378;2023-05-10T01:02:15;0.70;;;0.20;;
64854;SDS011;51321;50.428;8.378;2023-05-10T01:04:56;0.22;;;0.10;;
64854;SDS011;51321;50.428;8.378;2023-05-10T01:07:37;0.15;;;0.10;;
64854;SDS011;51321;50.428;8.378;2023-05-10T01:10:18;0.35;;;0.20;;
64854;SDS011;51321;50.428;8.378;2023-05-10T01:12:59;0.17;;;0.10;;
64854;SDS011;51321;50.428;8.378;2023-05-10T01:15:43;1.88;;;0.20;;
64854;SDS011;51321;50.428;8.378;2023-05-10T01:18:24;1.20;;;0.20;;
64854;SDS011;51321;50.428;8.378;2023-05-10T01:21:11;3.28;;;0.30;;
64854;SDS011;51321;50.428;8.378;2023-05-10T01:24:23;4.43;;;0.40;;
64854;SDS011;51321;50.428;8.378;2023-05-10T01:27:47;0.95;;;0.57;;
64854;SDS011;51321;50.428;8.378;2023-05-10T01:30:44;2.45;;;0.77;;
64854;SDS011;51321;50.428;8.378;2023-05-10T01:33:45;1.48;;;1.08;;
64854;SDS011;51321;50.428;8.378;2023-05-10T01:36:32;0.63;;;0.38;;
64854;SDS011;51321;50.428;8.378;2023-05-10T01:39:20;0.70;;;0.40;;
64854;SDS011;51321;50.428;8.378;2023-05-10T01:42:08;0.90;;;0.43;;
64854;SDS011;51321;50.428;8.378;2023-05-10T01:44:53;1.88;;;0.30;;
64854;SDS011;51321;50.428;8.378;2023-05-10T01:47:42;0.50;;;0.20;;
64854;SDS011;51321;50.428;8.378;2023-05-10T01:50:28;0.70;;;0.20;;
64854;SDS011;51321;50.428;8.378;2023-05-10T01:53:12;1.30;;;0.22;;
64854;SDS011;51321;50.428;8.378;2023-05-10T01:55:57;2.92;;;0.20;;
64854;SDS011;51321;50.428;8.378;2023-05-10T01:58:43;0.30;;;0.20;;
64854;SDS011;51321;50.428;8.378;2023-05-10T02:01:28;1.75;;;0.25;;
64854;SDS011;51321;50.428;8.378;2023-05-10T02:04:10;1.20;;;0.10;;
64854;SDS011;51321;50.428;8.378;2023-05-10T02:06:56;1.42;;;0.20;;
64854;SDS011;51321;50.428;8.378;2023-05-10T02:09:42;1.40;;;0.20;;
64854;SDS011;51321;50.428;8.378;2023-05-10T02:12:27;0.20;;;0.10;;
64854;SDS011;51321;50.428;8.378;2023-05-10T02:15:10;3.08;;;0.38;;
64854;SDS011;51321;50.428;8.378;2023-05-10T02:17:54;0.65;;;0.10;;
64854;SDS011;51321;50.428;8.378;2023-05-10T02:20:36;0.38;;;0.08;;
64854;SDS011;51321;50.428;8.378;2023-05-10T02:23:19;0.57;;;0.30;;
64854;SDS011;51321;50.428;8.378;2023-05-10T02:26:01;0.50;;;0.22;;
64854;SDS011;51321;50.428;8.378;2023-05-10T02:28:44;0.63;;;0.10;;
64854;SDS011;51321;50.428;8.378;2023-05-10T02:31:27;0.50;;;0.20;;
64854;SDS011;51321;50.428;8.378;2023-05-10T02:34:10;0.50;;;0.22;;
64854;SDS011;51321;50.428;8.378;2023-05-10T02:36:52;0.60;;;0.20;;
64854;SDS011;51321;50.428;8.378;2023-05-10T02:39:35;2.40;;;0.15;;
64854;SDS011;51321;50.428;8.378;2023-05-10T02:42:23;1.00;;;0.22;;
64854;SDS011;51321;50.428;8.378;2023-05-10T02:45:07;0.38;;;0.13;;
64854;SDS011;51321;50.428;8.378;2023-05-10T02:47:51;1.75;;;0.30;;
64854;SDS011;51321;50.428;8.378;2023-05-10T02:50:33;1.10;;;0.20;;
64854;SDS011;51321;50.428;8.378;2023-05-10T02:53:16;0.60;;;0.13;;
64854;SDS011;51321;50.428;8.378;2023-05-10T02:56:20;1.50;;;0.20;;
64854;SDS011;51321;50.428;8.378;2023-05-10T02:59:06;1.30;;;0.30;;
64854;SDS011;51321;50.428;8.378;2023-05-10T03:01:47;1.00;;;0.20;;
64854;SDS011;51321;50.428;8.378;2023-05-10T03:04:30;2.20;;;0.20;;
64854;SDS011;51321;50.428;8.378;2023-05-10T03:07:11;0.75;;;0.20;;
64854;SDS011;51321;50.428;8.378;2023-05-10T03:12:50;0.68;;;0.32;;
64854;SDS011;51321;50.428;8.378;2023-05-10T03:15:39;4.20;;;0.30;;
64854;SDS011;51321;50.428;8.378;2023-05-10T03:18:28;0.20;;;0.15;;
64854;SDS011;51321;50.428;8.378;2023-05-10T03:21:14;0.98;;;0.20;;
64854;SDS011;51321;50.428;8.378;2023-05-10T03:24:02;1.40;;;0.20;;
64854;SDS011;51321;50.428;8.378;2023-05-10T03:26:49;0.43;;;0.20;;
64854;SDS011;51321;50.428;8.378;2023-05-10T03:29:32;3.78;;;0.30;;
64854;SDS011;51321;50.428;8.378;2023-05-10T03:32:14;2.83;;;0.22;;
64854;SDS011;51321;50.428;8.378;2023-05-10T03:34:57;0.38;;;0.28;;
64854;SDS011;51321;50.428;8.378;2023-05-10T03:37:39;3.30;;;0.40;;
64854;SDS011;51321;50.428;8.378;2023-05-10T03:40:19;4.85;;;2.25;;
64854;SDS011;51321;50.428;8.378;2023-05-10T03:43:01;4.28;;;1.85;;
64854;SDS011;51321;50.428;8.378;2023-05-10T03:45:44;1.95;;;0.80;;
64854;SDS011;51321;50.428;8.378;2023-05-10T03:51:06;4.70;;;0.47;;
64854;SDS011;51321;50.428;8.378;2023-05-10T03:53:47;1.65;;;0.40;;
64854;SDS011;51321;50.428;8.378;2023-05-10T03:56:28;3.90;;;0.40;;
64854;SDS011;51321;50.428;8.378;2023-05-10T03:59:09;2.58;;;0.50;;
64854;SDS011;51321;50.428;8.378;2023-05-10T04:01:52;4.28;;;0.65;;
64854;SDS011;51321;50.428;8.378;2023-05-10T04:07:14;1.15;;;0.40;;
64854;SDS011;51321;50.428;8.378;2023-05-10T04:09:56;1.15;;;0.70;;
64854;SDS011;51321;50.428;8.378;2023-05-10T04:12:37;2.95;;;0.30;;
64854;SDS011;51321;50.428;8.378;2023-05-10T04:15:19;1.95;;;0.50;;
64854;SDS011;51321;50.428;8.378;2023-05-10T04:18:01;2.30;;;0.57;;
64854;SDS011;51321;50.428;8.378;2023-05-10T04:20:42;2.22;;;0.60;;
64854;SDS011;51321;50.428;8.378;2023-05-10T04:23:25;1.65;;;0.63;;
64854;SDS011;51321;50.428;8.378;2023-05-10T04:26:06;4.55;;;0.70;;
64854;SDS011;51321;50.428;8.378;2023-05-10T04:28:47;1.27;;;0.50;;
64854;SDS011;51321;50.428;8.378;2023-05-10T04:31:28;1.73;;;0.50;;
64854;SDS011;51321;50.428;8.378;2023-05-10T04:34:10;2.53;;;0.73;;
64854;SDS011;51321;50.428;8.378;2023-05-10T04:36:52;0.82;;;0.73;;
64854;SDS011;51321;50.428;8.378;2023-05-10T04:39:33;8.18;;;0.50;;
64854;SDS011;51321;50.428;8.378;2023-05-10T04:42:14;2.63;;;0.40;;
64854;SDS011;51321;50.428;8.378;2023-05-10T04:44:55;3.63;;;0.73;;
64854;SDS011;51321;50.428;8.378;2023-05-10T04:47:36;4.47;;;0.50;;
64854;SDS011;51321;50.428;8.378;2023-05-10T04:50:19;2.65;;;0.57;;
64854;SDS011;51321;50.428;8.378;2023-05-10T04:53:00;1.75;;;0.68;;
64854;SDS011;51321;50.428;8.378;2023-05-10T04:55:41;4.35;;;0.75;;
64854;SDS011;51321;50.428;8.378;2023-05-10T04:58:22;1.42;;;0.52;;
64854;SDS011;51321;50.428;8.378;2023-05-10T05:01:06;4.40;;;0.30;;
64854;SDS011;51321;50.428;8.378;2023-05-10T05:03:47;1.20;;;0.60;;
64854;SDS011;51321;50.428;8.378;2023-05-10T05:06:29;2.28;;;0.40;;
64854;SDS011;51321;50.428;8.378;2023-05-10T05:09:10;3.15;;;0.50;;
64854;SDS011;51321;50.428;8.378;2023-05-10T05:11:51;0.30;;;0.20;;
64854;SDS011;51321;50.428;8.378;2023-05-10T05:14:32;1.00;;;0.15;;
64854;SDS011;51321;50.428;8.378;2023-05-10T05:17:14;0.22;;;0.10;;
64854;SDS011;51321;50.428;8.378;2023-05-10T05:19:54;1.95;;;0.57;;
64854;SDS011;51321;50.428;8.378;2023-05-10T05:22:37;4.47;;;1.65;;
64854;SDS011;51321;50.428;8.378;2023-05-10T05:27:59;1.77;;;0.30;;
64854;SDS011;51321;50.428;8.378;2023-05-10T05:30:40;0.75;;;0.20;;
64854;SDS011;51321;50.428;8.378;2023-05-10T05:33:21;1.25;;;0.30;;
64854;SDS011;51321;50.428;8.378;2023-05-10T05:36:02;1.70;;;0.20;;
64854;SDS011;51321;50.428;8.378;2023-05-10T05:38:46;2.58;;;0.20;;
64854;SDS011;51321;50.428;8.378;2023-05-10T05:41:27;1.27;;;0.10;;
64854;SDS011;51321;50.428;8.378;2023-05-10T05:44:09;0.60;;;0.20;;
64854;SDS011;51321;50.428;8.378;2023-05-10T05:46:51;2.03;;;0.20;;
64854;SDS011;51321;50.428;8.378;2023-05-10T05:49:32;1.60;;;0.20;;
64854;SDS011;51321;50.428;8.378;2023-05-10T05:52:13;0.10;;;0.10;;
64854;SDS011;51321;50.428;8.378;2023-05-10T05:54:56;0.82;;;0.17;;
64854;SDS011;51321;50.428;8.378;2023-05-10T05:57:37;0.80;;;0.20;;
64854;SDS011;51321;50.428;8.378;2023-05-10T06:00:18;3.28;;;0.30;;
64854;SDS011;51321;50.428;8.378;2023-05-10T06:03:00;3.53;;;0.20;;
64854;SDS011;51321;50.428;8.378;2023-05-10T06:05:42;0.80;;;0.20;;
64854;SDS011;51321;50.428;8.378;2023-05-10T06:08:24;1.50;;;0.30;;
64854;SDS011;51321;50.428;8.378;2023-05-10T06:11:07;3.10;;;1.10;;
64854;SDS011;51321;50.428;8.378;2023-05-10T06:13:47;0.52;;;0.20;;
64854;SDS011;51321;50.428;8.378;2023-05-10T06:16:28;0.47;;;0.10;;
64854;SDS011;51321;50.428;8.378;2023-05-10T06:19:09;0.52;;;0.15;;
64854;SDS011;51321;50.428;8.378;2023-05-10T06:21:50;0.93;;;0.30;;
64854;SDS011;51321;50.428;8.378;2023-05-10T06:24:31;0.75;;;0.10;;
64854;SDS011;51321;50.428;8.378;2023-05-10T06:27:14;2.67;;;0.20;;
64854;SDS011;51321;50.428;8.378;2023-05-10T06:32:37;0.20;;;0.20;;
64854;SDS011;51321;50.428;8.378;2023-05-10T06:35:19;0.20;;;0.20;;
64854;SDS011;51321;50.428;8.378;2023-05-10T06:38:00;0.30;;;0.20;;
64854;SDS011;51321;50.428;8.378;2023-05-10T06:40:41;0.50;;;0.35;;
64854;SDS011;51321;50.428;8.378;2023-05-10T06:43:25;1.88;;;0.60;;
64854;SDS011;51321;50.428;8.378;2023-05-10T06:46:07;0.60;;;0.52;;
64854;SDS011;51321;50.428;8.378;2023-05-10T06:48:48;1.95;;;0.60;;
64854;SDS011;51321;50.428;8.378;2023-05-10T06:51:29;1.77;;;0.60;;
64854;SDS011;51321;50.428;8.378;2023-05-10T06:54:12;1.38;;;0.45;;
64854;SDS011;51321;50.428;8.378;2023-05-10T06:56:54;2.17;;;0.82;;
64854;SDS011;51321;50.428;8.378;2023-05-10T06:59:36;2.15;;;0.70;;
64854;SDS011;51321;50.428;8.378;2023-05-10T07:02:17;1.35;;;0.63;;
64854;SDS011;51321;50.428;8.378;2023-05-10T07:04:59;2.35;;;0.90;;
64854;SDS011;51321;50.428;8.378;2023-05-10T07:07:41;0.97;;;0.77;;
64854;SDS011;51321;50.428;8.378;2023-05-10T07:10:22;2.65;;;0.75;;
64854;SDS011;51321;50.428;8.378;2023-05-10T07:13:03;2.65;;;0.70;;
64854;SDS011;51321;50.428;8.378;2023-05-10T07:15:45;4.05;;;0.80;;
64854;SDS011;51321;50.428;8.378;2023-05-10T07:18:26;3.97;;;0.90;;
64854;SDS011;51321;50.428;8.378;2023-05-10T07:23:49;2.35;;;1.10;;
64854;SDS011;51321;50.428;8.378;2023-05-10T07:26:30;1.85;;;1.05;;
64854;SDS011;51321;50.428;8.378;2023-05-10T07:29:11;1.85;;;0.70;;
64854;SDS011;51321;50.428;8.378;2023-05-10T07:31:53;1.20;;;0.90;;
64854;SDS011;51321;50.428;8.378;2023-05-10T07:34:35;6.07;;;1.23;;
64854;SDS011;51321;50.428;8.378;2023-05-10T07:37:18;3.15;;;1.42;;
64854;SDS011;51321;50.428;8.378;2023-05-10T07:39:59;3.90;;;1.23;;
64854;SDS011;51321;50.428;8.378;2023-05-10T07:42:41;2.00;;;1.40;;
64854;SDS011;51321;50.428;8.378;2023-05-10T07:45:22;1.80;;;1.10;;
64854;SDS011;51321;50.428;8.378;2023-05-10T07:48:05;1.70;;;0.90;;
64854;SDS011;51321;50.428;8.378;2023-05-10T07:50:45;3.13;;;1.63;;
64854;SDS011;51321;50.428;8.378;2023-05-10T07:53:26;2.97;;;1.10;;
64854;SDS011;51321;50.428;8.378;2023-05-10T07:56:20;2.85;;;0.95;;
64854;SDS011;51321;50.428;8.378;2023-05-10T07:59:04;2.70;;;1.40;;
64854;SDS011;51321;50.428;8.378;2023-05-10T08:01:45;2.20;;;1.00;;
64854;SDS011;51321;50.428;8.378;2023-05-10T08:04:27;7.50;;;1.30;;
64854;SDS011;51321;50.428;8.378;2023-05-10T08:09:50;3.00;;;0.90;;
64854;SDS011;51321;50.428;8.378;2023-05-10T08:12:31;1.73;;;0.50;;
64854;SDS011;51321;50.428;8.378;2023-05-10T08:15:12;3.38;;;0.70;;
64854;SDS011;51321;50.428;8.378;2023-05-10T08:17:53;3.45;;;1.00;;
64854;SDS011;51321;50.428;8.378;2023-05-10T08:20:35;2.50;;;0.68;;
64854;SDS011;51321;50.428;8.378;2023-05-10T08:23:17;1.30;;;0.70;;
64854;SDS011;51321;50.428;8.378;2023-05-10T08:25:58;3.05;;;1.30;;
64854;SDS011;51321;50.428;8.378;2023-05-10T08:28:41;2.53;;;1.10;;
64854;SDS011;51321;50.428;8.378;2023-05-10T08:31:22;1.33;;;1.02;;
64854;SDS011;51321;50.428;8.378;2023-05-10T08:34:03;1.75;;;1.05;;
64854;SDS011;51321;50.428;8.378;2023-05-10T08:36:45;4.57;;;1.20;;
64854;SDS011;51321;50.428;8.378;2023-05-10T08:39:26;2.33;;;1.20;;
64854;SDS011;51321;50.428;8.378;2023-05-10T08:42:09;2.70;;;1.52;;
64854;SDS011;51321;50.428;8.378;2023-05-10T08:44:52;2.65;;;1.00;;
64854;SDS011;51321;50.428;8.378;2023-05-10T08:47:34;2.20;;;1.30;;
64854;SDS011;51321;50.428;8.378;2023-05-10T08:50:17;5.43;;;1.35;;
64854;SDS011;51321;50.428;8.378;2023-05-10T08:53:04;2.55;;;1.00;;
64854;SDS011;51321;50.428;8.378;2023-05-10T08:55:49;3.65;;;1.23;;
64854;SDS011;51321;50.428;8.378;2023-05-10T08:58:30;1.27;;;0.88;;
64854;SDS011;51321;50.428;8.378;2023-05-10T09:01:12;1.48;;;0.75;;
64854;SDS011;51321;50.428;8.378;2023-05-10T09:03:56;2.45;;;0.98;;
64854;SDS011;51321;50.428;8.378;2023-05-10T09:06:37;5.45;;;1.15;;
64854;SDS011;51321;50.428;8.378;2023-05-10T09:09:20;6.72;;;1.38;;
64854;SDS011;51321;50.428;8.378;2023-05-10T09:12:02;4.22;;;1.05;;
64854;SDS011;51321;50.428;8.378;2023-05-10T09:14:43;5.47;;;1.30;;
64854;SDS011;51321;50.428;8.378;2023-05-10T09:20:08;4.07;;;1.20;;
64854;SDS011;51321;50.428;8.378;2023-05-10T09:22:50;2.33;;;1.20;;
64854;SDS011;51321;50.428;8.378;2023-05-10T09:25:33;1.67;;;1.30;;
64854;SDS011;51321;50.428;8.378;2023-05-10T09:28:15;2.40;;;1.40;;
64854;SDS011;51321;50.428;8.378;2023-05-10T09:30:56;5.88;;;1.40;;
64854;SDS011;51321;50.428;8.378;2023-05-10T09:33:43;2.53;;;1.30;;
64854;SDS011;51321;50.428;8.378;2023-05-10T09:36:24;4.32;;;1.90;;
64854;SDS011;51321;50.428;8.378;2023-05-10T09:39:07;1.77;;;1.30;;
64854;SDS011;51321;50.428;8.378;2023-05-10T09:41:50;3.20;;;1.15;;
64854;SDS011;51321;50.428;8.378;2023-05-10T09:44:32;2.58;;;1.35;;
64854;SDS011;51321;50.428;8.378;2023-05-10T09:47:16;2.92;;;1.23;;
64854;SDS011;51321;50.428;8.378;2023-05-10T09:49:59;7.75;;;1.55;;
64854;SDS011;51321;50.428;8.378;2023-05-10T09:52:47;4.53;;;1.38;;
64854;SDS011;51321;50.428;8.378;2023-05-10T09:55:38;2.92;;;1.40;;
64854;SDS011;51321;50.428;8.378;2023-05-10T09:58:24;3.10;;;1.08;;
64854;SDS011;51321;50.428;8.378;2023-05-10T10:01:05;2.85;;;1.20;;
64854;SDS011;51321;50.428;8.378;2023-05-10T10:03:51;3.75;;;1.00;;
64854;SDS011;51321;50.428;8.378;2023-05-10T10:06:36;3.25;;;1.42;;
64854;SDS011;51321;50.428;8.378;2023-05-10T10:09:19;4.53;;;1.27;;
64854;SDS011;51321;50.428;8.378;2023-05-10T10:12:00;3.90;;;1.00;;
64854;SDS011;51321;50.428;8.378;2023-05-10T10:14:43;4.18;;;1.65;;
64854;SDS011;51321;50.428;8.378;2023-05-10T10:17:26;2.40;;;1.10;;
64854;SDS011;51321;50.428;8.378;2023-05-10T10:20:08;4.13;;;1.02;;
64854;SDS011;51321;50.428;8.378;2023-05-10T10:22:52;2.85;;;1.10;;
64854;SDS011;51321;50.428;8.378;2023-05-10T10:25:34;2.83;;;1.15;;
64854;SDS011;51321;50.428;8.378;2023-05-10T10:28:18;5.18;;;1.08;;
64854;SDS011;51321;50.428;8.378;2023-05-10T10:31:13;6.30;;;1.17;;
64854;SDS011;51321;50.428;8.378;2023-05-10T10:34:05;2.63;;;0.98;;
64854;SDS011;51321;50.428;8.378;2023-05-10T10:39:28;1.40;;;0.70;;
64854;SDS011;51321;50.428;8.378;2023-05-10T10:42:11;2.47;;;1.10;;
64854;SDS011;51321;50.428;8.378;2023-05-10T10:44:56;2.35;;;0.98;;
64854;SDS011;51321;50.428;8.378;2023-05-10T10:51:03;4.47;;;0.65;;
64854;SDS011;51321;50.428;8.378;2023-05-10T10:53:43;0.82;;;0.30;;
64854;SDS011;51321;50.428;8.378;2023-05-10T10:56:27;0.63;;;0.30;;
64854;SDS011;51321;50.428;8.378;2023-05-10T10:59:08;2.42;;;0.30;;
64854;SDS011;51321;50.428;8.378;2023-05-10T11:01:51;0.80;;;0.35;;
64854;SDS011;51321;50.428;8.378;2023-05-10T11:07:21;1.90;;;0.35;;
64854;SDS011;51321;50.428;8.378;2023-05-10T11:10:04;2.70;;;0.32;;
64854;SDS011;51321;50.428;8.378;2023-05-10T11:12:52;1.13;;;0.30;;
64854;SDS011;51321;50.428;8.378;2023-05-10T11:15:35;0.85;;;0.40;;
64854;SDS011;51321;50.428;8.378;2023-05-10T11:18:18;1.17;;;0.35;;
64854;SDS011;51321;50.428;8.378;2023-05-10T11:21:01;2.53;;;0.40;;
64854;SDS011;51321;50.428;8.378;2023-05-10T11:23:50;1.85;;;0.30;;
64854;SDS011;51321;50.428;8.378;2023-05-10T11:26:35;2.25;;;0.30;;
64854;SDS011;51321;50.428;8.378;2023-05-10T11:29:16;2.72;;;0.65;;
64854;SDS011;51321;50.428;8.378;2023-05-10T11:31:57;0.88;;;0.20;;
64854;SDS011;51321;50.428;8.378;2023-05-10T11:34:39;0.77;;;0.40;;
64854;SDS011;51321;50.428;8.378;2023-05-10T11:37:21;2.75;;;0.15;;
64854;SDS011;51321;50.428;8.378;2023-05-10T11:40:02;3.40;;;0.40;;
64854;SDS011;51321;50.428;8.378;2023-05-10T11:42:45;1.48;;;0.20;;
64854;SDS011;51321;50.428;8.378;2023-05-10T11:45:26;1.00;;;0.30;;
64854;SDS011;51321;50.428;8.378;2023-05-10T11:48:08;3.60;;;0.20;;
64854;SDS011;51321;50.428;8.378;2023-05-10T11:50:48;1.58;;;0.25;;
64854;SDS011;51321;50.428;8.378;2023-05-10T11:53:37;0.60;;;0.25;;
64854;SDS011;51321;50.428;8.378;2023-05-10T11:56:18;1.27;;;0.30;;
64854;SDS011;51321;50.428;8.378;2023-05-10T11:59:00;1.50;;;0.43;;
64854;SDS011;51321;50.428;8.378;2023-05-10T12:01:43;1.98;;;0.30;;
64854;SDS011;51321;50.428;8.378;2023-05-10T12:04:25;1.13;;;0.52;;
64854;SDS011;51321;50.428;8.378;2023-05-10T12:10:24;0.35;;;0.17;;
64854;SDS011;51321;50.428;8.378;2023-05-10T12:13:11;1.05;;;0.25;;
64854;SDS011;51321;50.428;8.378;2023-05-10T12:15:54;1.95;;;0.22;;
64854;SDS011;51321;50.428;8.378;2023-05-10T12:18:41;0.45;;;0.20;;
64854;SDS011;51321;50.428;8.378;2023-05-10T12:21:23;5.13;;;0.50;;
64854;SDS011;51321;50.428;8.378;2023-05-10T12:24:05;1.00;;;0.30;;
64854;SDS011;51321;50.428;8.378;2023-05-10T12:26:49;3.90;;;0.35;;
64854;SDS011;51321;50.428;8.378;2023-05-10T12:29:31;0.40;;;0.20;;
64854;SDS011;51321;50.428;8.378;2023-05-10T12:32:12;0.65;;;0.30;;
64854;SDS011;51321;50.428;8.378;2023-05-10T12:34:55;1.10;;;0.20;;
64854;SDS011;51321;50.428;8.378;2023-05-10T12:37:41;2.10;;;0.38;;
64854;SDS011;51321;50.428;8.378;2023-05-10T12:40:24;0.70;;;0.10;;
64854;SDS011;51321;50.428;8.378;2023-05-10T12:43:11;0.90;;;0.20;;
64854;SDS011;51321;50.428;8.378;2023-05-10T12:45:52;0.28;;;0.10;;
64854;SDS011;51321;50.428;8.378;2023-05-10T12:48:35;1.95;;;0.45;;
64854;SDS011;51321;50.428;8.378;2023-05-10T12:51:17;0.47;;;0.10;;
64854;SDS011;51321;50.428;8.378;2023-05-10T12:54:01;0.60;;;0.20;;
64854;SDS011;51321;50.428;8.378;2023-05-10T12:56:43;1.98;;;0.40;;
64854;SDS011;51321;50.428;8.378;2023-05-10T12:59:28;1.10;;;0.30;;
64854;SDS011;51321;50.428;8.378;2023-05-10T13:02:09;1.45;;;0.35;;
64854;SDS011;51321;50.428;8.378;2023-05-10T13:04:50;0.20;;;0.10;;
64854;SDS011;51321;50.428;8.378;2023-05-10T13:07:31;0.20;;;0.10;;
64854;SDS011;51321;50.428;8.378;2023-05-10T13:10:18;1.80;;;0.20;;
64854;SDS011;51321;50.428;8.378;2023-05-10T13:13:01;0.30;;;0.10;;
64854;SDS011;51321;50.428;8.378;2023-05-10T13:15:44;0.20;;;0.15;;
64854;SDS011;51321;50.428;8.378;2023-05-10T13:18:25;1.67;;;0.20;;
64854;SDS011;51321;50.428;8.378;2023-05-10T13:21:06;0.57;;;0.28;;
64854;SDS011;51321;50.428;8.378;2023-05-10T13:23:47;2.33;;;0.20;;
64854;SDS011;51321;50.428;8.378;2023-05-10T13:26:28;4.10;;;0.55;;
64854;SDS011;51321;50.428;8.378;2023-05-10T13:29:08;0.38;;;0.20;;
64854;SDS011;51321;50.428;8.378;2023-05-10T13:31:51;0.52;;;0.20;;
64854;SDS011;51321;50.428;8.378;2023-05-10T13:34:32;2.33;;;0.50;;
64854;SDS011;51321;50.428;8.378;2023-05-10T13:37:14;1.77;;;0.40;;
64854;SDS011;51321;50.428;8.378;2023-05-10T13:39:55;0.50;;;0.20;;
64854;SDS011;51321;50.428;8.378;2023-05-10T13:42:36;2.50;;;0.10;;
64854;SDS011;51321;50.428;8.378;2023-05-10T13:45:17;1.42;;;0.10;;
64854;SDS011;51321;50.428;8.378;2023-05-10T13:48:01;1.42;;;0.30;;
64854;SDS011;51321;50.428;8.378;2023-05-10T13:53:23;0.95;;;0.20;;
64854;SDS011;51321;50.428;8.378;2023-05-10T13:56:05;4.45;;;0.85;;
64854;SDS011;51321;50.428;8.378;2023-05-10T13:58:46;0.98;;;0.20;;
64854;SDS011;51321;50.428;8.378;2023-05-10T14:01:27;3.13;;;0.30;;
64854;SDS011;51321;50.428;8.378;2023-05-10T14:04:10;1.35;;;0.20;;
64854;SDS011;51321;50.428;8.378;2023-05-10T14:06:51;0.65;;;0.20;;
64854;SDS011;51321;50.428;8.378;2023-05-10T14:09:33;1.80;;;0.20;;
64854;SDS011;51321;50.428;8.378;2023-05-10T14:12:14;0.80;;;0.25;;
64854;SDS011;51321;50.428;8.378;2023-05-10T14:14:55;0.98;;;0.20;;
64854;SDS011;51321;50.428;8.378;2023-05-10T14:17:36;3.20;;;0.47;;
64854;SDS011;51321;50.428;8.378;2023-05-10T14:20:24;2.70;;;0.20;;
64854;SDS011;51321;50.428;8.378;2023-05-10T14:23:04;1.65;;;0.15;;
64854;SDS011;51321;50.428;8.378;2023-05-10T14:25:47;1.60;;;0.57;;
64854;SDS011;51321;50.428;8.378;2023-05-10T14:28:27;4.95;;;0.30;;
64854;SDS011;51321;50.428;8.378;2023-05-10T14:31:08;1.58;;;0.10;;
64854;SDS011;51321;50.428;8.378;2023-05-10T14:33:49;0.47;;;0.10;;
64854;SDS011;51321;50.428;8.378;2023-05-10T14:36:33;3.03;;;0.30;;
64854;SDS011;51321;50.428;8.378;2023-05-10T14:39:13;3.42;;;0.20;;
64854;SDS011;51321;50.428;8.378;2023-05-10T14:41:55;1.08;;;0.30;;
64854;SDS011;51321;50.428;8.378;2023-05-10T14:44:36;0.45;;;0.15;;
64854;SDS011;51321;50.428;8.378;2023-05-10T14:47:16;0.77;;;0.17;;
64854;SDS011;51321;50.428;8.378;2023-05-10T14:49:57;1.10;;;0.20;;
64854;SDS011;51321;50.428;8.378;2023-05-10T14:52:40;0.70;;;0.30;;
64854;SDS011;51321;50.428;8.378;2023-05-10T14:55:21;0.50;;;0.20;;
64854;SDS011;51321;50.428;8.378;2023-05-10T14:58:02;2.05;;;0.20;;
64854;SDS011;51321;50.428;8.378;2023-05-10T15:00:43;1.73;;;0.30;;
64854;SDS011;51321;50.428;8.378;2023-05-10T15:03:24;0.60;;;0.23;;
64854;SDS011;51321;50.428;8.378;2023-05-10T15:06:08;4.45;;;0.30;;
64854;SDS011;51321;50.428;8.378;2023-05-10T15:08:51;0.57;;;0.32;;
64854;SDS011;51321;50.428;8.378;2023-05-10T15:11:31;2.00;;;0.40;;
64854;SDS011;51321;50.428;8.378;2023-05-10T15:14:13;4.63;;;0.65;;
64854;SDS011;51321;50.428;8.378;2023-05-10T15:16:54;4.63;;;0.30;;
64854;SDS011;51321;50.428;8.378;2023-05-10T15:19:36;2.83;;;0.35;;
64854;SDS011;51321;50.428;8.378;2023-05-10T15:22:16;4.07;;;0.32;;
64854;SDS011;51321;50.428;8.378;2023-05-10T15:24:59;1.92;;;0.30;;
64854;SDS011;51321;50.428;8.378;2023-05-10T15:27:40;1.58;;;0.30;;
64854;SDS011;51321;50.428;8.378;2023-05-10T15:30:22;3.03;;;0.30;;
64854;SDS011;51321;50.428;8.378;2023-05-10T15:33:03;0.60;;;0.30;;
64854;SDS011;51321;50.428;8.378;2023-05-10T15:35:44;1.65;;;0.20;;
64854;SDS011;51321;50.428;8.378;2023-05-10T15:38:25;2.47;;;0.30;;
64854;SDS011;51321;50.428;8.378;2023-05-10T15:41:07;1.77;;;0.22;;
64854;SDS011;51321;50.428;8.378;2023-05-10T15:43:48;0.40;;;0.20;;
64854;SDS011;51321;50.428;8.378;2023-05-10T15:46:29;1.55;;;0.22;;
64854;SDS011;51321;50.428;8.378;2023-05-10T15:49:11;1.75;;;0.22;;
64854;SDS011;51321;50.428;8.378;2023-05-10T15:51:52;1.58;;;0.10;;
64854;SDS011;51321;50.428;8.378;2023-05-10T15:54:32;5.07;;;0.65;;
64854;SDS011;51321;50.428;8.378;2023-05-10T15:57:15;0.17;;;0.13;;
64854;SDS011;51321;50.428;8.378;2023-05-10T15:59:56;0.90;;;0.30;;
64854;SDS011;51321;50.428;8.378;2023-05-10T16:02:37;1.20;;;0.20;;
64854;SDS011;51321;50.428;8.378;2023-05-10T16:05:18;1.23;;;0.20;;
64854;SDS011;51321;50.428;8.378;2023-05-10T16:07:59;1.45;;;0.40;;
64854;SDS011;51321;50.428;8.378;2023-05-10T16:10:41;1.02;;;0.30;;
64854;SDS011;51321;50.428;8.378;2023-05-10T16:13:24;1.35;;;0.45;;
64854;SDS011;51321;50.428;8.378;2023-05-10T16:18:46;1.17;;;0.50;;
64854;SDS011;51321;50.428;8.378;2023-05-10T16:21:29;1.42;;;0.20;;
64854;SDS011;51321;50.428;8.378;2023-05-10T16:24:11;0.30;;;0.20;;
64854;SDS011;51321;50.428;8.378;2023-05-10T16:26:52;0.82;;;0.20;;
64854;SDS011;51321;50.428;8.378;2023-05-10T16:29:35;3.85;;;0.30;;
64854;SDS011;51321;50.428;8.378;2023-05-10T16:32:16;1.55;;;0.28;;
64854;SDS011;51321;50.428;8.378;2023-05-10T16:34:57;1.90;;;0.40;;
64854;SDS011;51321;50.428;8.378;2023-05-10T16:37:38;1.95;;;0.30;;
64854;SDS011;51321;50.428;8.378;2023-05-10T16:40:19;1.30;;;0.28;;
64854;SDS011;51321;50.428;8.378;2023-05-10T16:43:01;0.40;;;0.20;;
64854;SDS011;51321;50.428;8.378;2023-05-10T16:45:44;1.48;;;0.20;;
64854;SDS011;51321;50.428;8.378;2023-05-10T16:48:24;0.85;;;0.28;;
64854;SDS011;51321;50.428;8.378;2023-05-10T16:51:06;0.20;;;0.20;;
64854;SDS011;51321;50.428;8.378;2023-05-10T16:53:48;0.30;;;0.30;;
64854;SDS011;51321;50.428;8.378;2023-05-10T16:56:29;1.77;;;0.30;;
64854;SDS011;51321;50.428;8.378;2023-05-10T16:59:10;1.38;;;0.30;;